Startpagina
METAR-TAF:

METAR-TAF

Vliegvelden :

Wallis, Frankrijk

breedte: 13-14S, lengte: 176-10W, hoogte: 23 m

METAR: ontbreekt

Tijdstip: 20:41 (08:41 UTC)

Verwachting

Dit bericht is 1 uur en het 28 minuten geleden gemaakt, om 07:13 UTC
Verwachting geldig van 19 om 07 UTC tot 20 om 06 UTC
Wind 5 kt uit variabele richting
Zicht 10 km of meer
Verspreide wolken op 2000 ft
Verspreide wolken op 5000 ft
Tijdelijke
van 19 om 07 UTC tot 19 om 12 UTC
Zicht: 3000 m
Gebroken wolken op 1000 ft
Verspreide wolken op 2500 ft, Stapelwolken.
regenbuien
Kans 40% :
Tijdelijke
van 19 om 07 UTC tot 19 om 11 UTC
Wind 10 kt uit variabele richting met uitschieters tot 20 kt
Zicht: 1400 m
Gebroken wolken op 600 ft
Weinig wolken op 1700 ft, Cumulonimbus.
regenbuien

TAF: NLWW 190713Z 1907/2006 VRB05KT 9999 SCT020 SCT050 TEMPO 1907/1912 3000 SHRA BKN010 SCT025TCU PROB40 TEMPO 1907/1911 VRB10G20KT 1400 SHRA BKN006 FEW017CB

Waarnemingen en weersverwachtingen van meer dan 4000 vliegvelden (METAR en TAF).

De beschikbare stations zijn de gele en rode punten op de kaart.

Ga met uw muis naar het station om de naam te zien.

Klik dan om waarnemingen en weersverwachtingen te zien.

kaart wijzigen: klik op de groene knoppen met een zwart kruis om in te zoomen, op de groene knop met een streepje om uit te zoomen of op de groene pijlen voor aangrenzende kaarten.


METAR-TAF: